Aviation Digital Data Service (ADDS)

Output produced by METARs form (1311 UTC 17 October 2017)
found at http://aviationweather.gov/adds/metars/
 
KLWB 171124Z 1711/1812 00000KT 3/4SM BR OVC001 
     FM171400 00000KT P6SM SKC 
     FM180900 00000KT 1/4SM FG OVC001